Time;durP1;ratioP1;P1;durP2;ratioP2;P2;SDS_P1;SDS_P2;PMS_P1;PMS_P2;Temp;Humidity;BMP_temperature;BMP_pressure;BME280_temperature;BME280_humidity;BME280_pressure;Samples;Min_cycle;Max_cycle;Signal;HPM_P1;HPM_P2
2022/12/29 00:00:01;;;;;;;3.85;1.67;;;;;;;10.76;57.57;99344.00;1087316;54;20688;-78
2022/12/29 00:02:33;;;;;;;3.67;1.45;;;;;;;10.87;57.34;99341.03;1087311;54;20035;-78
2022/12/29 00:03:35;;;;;;;3.10;1.50;;;;;;;10.91;57.09;99342.34;1087302;54;20111;-80
2022/12/29 00:04:40;;;;;;;4.00;1.38;;;;;;;10.93;57.15;99347.56;1088335;39;20384;-79
2022/12/29 00:05:45;;;;;;;4.55;1.60;;;;;;;10.99;57.09;99338.03;1087183;54;20042;-79
2022/12/29 00:06:51;;;;;;;4.43;1.55;;;;;;;10.97;56.79;99346.19;1088102;39;20674;-80
2022/12/29 00:07:57;;;;;;;5.20;1.92;;;;;;;10.99;56.79;99335.38;1087999;46;20022;-80
2022/12/29 00:09:01;;;;;;;4.00;1.60;;;;;;;11.00;56.83;99337.88;1086903;39;20753;-79
2022/12/29 00:10:04;;;;;;;4.10;1.60;;;;;;;11.11;56.80;99325.19;1087225;54;20034;-79
2022/12/29 00:11:13;;;;;;;5.65;1.85;;;;;;;11.17;56.53;99333.38;1087208;54;20026;-79
2022/12/29 00:12:17;;;;;;;5.35;1.40;;;;;;;11.20;56.15;99330.34;1088723;39;20491;-79
2022/12/29 00:15:52;;;;;;;4.35;1.70;;;;;;;11.21;56.38;99320.50;1087509;54;20036;-78
2022/12/29 00:16:57;;;;;;;3.75;1.45;;;;;;;11.23;56.06;99323.84;1087552;54;20058;-79
2022/12/29 00:18:01;;;;;;;5.40;2.00;;;;;;;11.21;56.19;99318.66;1087544;54;20038;-79
2022/12/29 00:35:07;;;;;;;3.83;1.40;;;;;;;11.24;56.03;99320.19;1087538;54;20034;-79
2022/12/29 00:35:13;;;;;;;5.25;1.40;;;;;;;11.15;56.19;99311.31;1087532;54;20034;-79
2022/12/29 00:36:23;;;;;;;3.50;1.80;;;;;;;11.19;56.32;99312.63;1087510;54;20761;-79
2022/12/29 00:44:22;;;;;;;4.53;1.60;;;;;;;11.05;56.54;99311.44;1087226;54;20057;-78
2022/12/29 00:45:24;;;;;;;5.97;1.70;;;;;;;11.07;56.57;99309.44;1087184;54;20034;-77
2022/12/29 00:46:28;;;;;;;5.68;1.75;;;;;;;11.03;56.81;99310.81;1087157;54;20038;-78
2022/12/29 00:47:48;;;;;;;3.63;1.48;;;;;;;11.06;56.91;99313.13;1087109;54;20035;-78
2022/12/29 00:50:58;;;;;;;4.57;1.40;;;;;;;10.93;57.05;99323.50;1086941;54;20041;-78
2022/12/29 00:52:05;;;;;;;4.20;1.73;;;;;;;10.91;57.06;99326.31;1087178;54;20046;-78
2022/12/29 00:53:07;;;;;;;6.47;2.10;;;;;;;10.87;57.35;99324.97;1086687;54;20114;-79
2022/12/29 00:54:15;;;;;;;7.43;2.05;;;;;;;11.00;57.03;99324.50;1086685;54;20035;-78
2022/12/29 00:55:17;;;;;;;3.78;1.30;;;;;;;11.03;57.23;99321.50;1086614;54;20042;-78
2022/12/29 00:56:21;;;;;;;3.67;1.63;;;;;;;11.18;56.90;99323.50;1086723;54;20026;-80
2022/12/29 00:57:23;;;;;;;3.65;1.67;;;;;;;11.00;56.81;99319.13;1086753;54;20046;-79
2022/12/29 00:58:33;;;;;;;6.40;1.80;;;;;;;10.97;57.10;99329.34;1086651;54;20061;-79
2022/12/29 00:59:52;;;;;;;5.47;1.80;;;;;;;10.86;57.32;99334.00;1086856;54;20127;-80
2022/12/29 01:01:02;;;;;;;4.32;1.60;;;;;;;10.82;57.61;99334.50;1086806;54;20287;-78
2022/12/29 01:02:07;;;;;;;8.75;1.80;;;;;;;10.78;57.75;99325.97;1086892;54;20038;-78
2022/12/29 01:03:09;;;;;;;4.32;1.80;;;;;;;10.74;57.73;99336.16;1087811;39;20626;-78
2022/12/29 01:04:14;;;;;;;5.72;2.17;;;;;;;10.83;57.60;99338.84;1089915;39;20576;-78
2022/12/29 01:05:19;;;;;;;5.07;2.10;;;;;;;10.82;57.98;99347.84;1086960;54;20046;-78
2022/12/29 01:06:24;;;;;;;4.90;1.90;;;;;;;10.91;57.51;99341.53;1086691;54;20042;-78
2022/12/29 01:07:26;;;;;;;3.88;1.73;;;;;;;10.80;58.05;99341.84;1086860;54;20046;-78
2022/12/29 01:08:31;;;;;;;4.40;1.85;;;;;;;10.89;57.73;99343.53;1086976;54;20038;-78
2022/12/29 01:10:58;;;;;;;3.80;1.52;;;;;;;10.99;57.67;99351.41;1086813;54;20018;-77
2022/12/29 01:12:03;;;;;;;4.50;1.77;;;;;;;10.82;58.14;99361.22;1086787;54;20034;-77
2022/12/29 01:13:15;;;;;;;5.15;2.22;;;;;;;10.74;58.13;99362.03;1086743;47;21179;-78
2022/12/29 01:14:20;;;;;;;4.05;1.77;;;;;;;10.83;57.80;99357.56;1086796;54;20041;-78
2022/12/29 01:15:25;;;;;;;4.40;1.40;;;;;;;10.76;58.21;99366.25;1087314;39;20129;-79
2022/12/29 01:16:26;;;;;;;3.70;1.60;;;;;;;10.76;58.41;99368.91;1086733;54;20034;-78
2022/12/29 01:17:31;;;;;;;6.88;1.90;;;;;;;10.81;58.08;99359.56;1086669;54;20056;-78
2022/12/29 01:18:36;;;;;;;4.03;1.80;;;;;;;10.84;58.11;99361.91;1086797;54;20064;-78
2022/12/29 01:19:42;;;;;;;4.13;1.70;;;;;;;10.65;58.53;99363.00;1087077;54;20034;-78
2022/12/29 01:20:44;;;;;;;4.90;1.85;;;;;;;10.67;58.48;99380.56;1087184;54;20034;-79
2022/12/29 01:21:48;;;;;;;4.97;1.70;;;;;;;10.74;58.24;99372.72;1087358;54;20644;-78
2022/12/29 01:22:50;;;;;;;5.13;1.50;;;;;;;10.74;58.04;99370.91;1087258;54;20403;-78
2022/12/29 01:23:55;;;;;;;3.90;1.75;;;;;;;10.95;57.78;99364.28;1087276;54;20042;-78
2022/12/29 01:24:57;;;;;;;3.58;1.70;;;;;;;10.74;58.29;99373.56;1087362;54;20034;-79
2022/12/29 01:26:12;;;;;;;3.85;1.40;;;;;;;10.67;58.51;99374.38;1087848;46;20054;-78
2022/12/29 01:27:14;;;;;;;5.22;1.42;;;;;;;10.81;58.56;99372.91;1087437;54;20019;-79
2022/12/29 01:28:18;;;;;;;3.95;1.70;;;;;;;10.85;58.34;99379.63;1091220;39;20536;-77
2022/12/29 01:29:23;;;;;;;4.28;1.67;;;;;;;10.89;58.38;99373.78;1087528;54;20038;-78
2022/12/29 01:30:29;;;;;;;4.75;1.42;;;;;;;10.90;58.75;99362.09;1086870;54;20030;-79
2022/12/29 01:31:32;;;;;;;4.70;1.60;;;;;;;10.83;58.72;99369.06;1086515;54;20145;-79
2022/12/29 01:32:36;;;;;;;3.40;1.55;;;;;;;10.83;59.20;99374.41;1086748;54;20061;-78
2022/12/29 01:33:38;;;;;;;5.15;1.70;;;;;;;10.71;59.56;99375.75;1087991;46;20063;-78
2022/12/29 01:34:42;;;;;;;3.97;1.65;;;;;;;10.87;59.38;99358.88;1088255;54;20072;-80
2022/12/29 01:35:47;;;;;;;4.32;1.70;;;;;;;10.75;60.01;99375.25;1093638;46;20019;-78
2022/12/29 01:36:54;;;;;;;4.47;1.60;;;;;;;10.73;59.74;99374.56;1087941;54;20015;-79
2022/12/29 01:37:56;;;;;;;4.22;1.60;;;;;;;10.72;60.35;99374.75;1089147;46;20030;-79
2022/12/29 01:39:02;;;;;;;4.30;1.50;;;;;;;10.73;60.47;99379.06;1089162;46;20026;-79
2022/12/29 01:40:05;;;;;;;3.60;1.42;;;;;;;10.85;59.95;99366.25;1087665;54;20035;-80
2022/12/29 01:41:11;;;;;;;3.40;1.40;;;;;;;10.95;59.94;99372.31;1087510;46;20030;-76
2022/12/29 01:42:49;;;;;;;4.40;1.73;;;;;;;10.77;60.72;99372.41;1087387;54;20034;-79
2022/12/29 01:43:54;;;;;;;4.10;1.67;;;;;;;10.73;60.75;99374.56;1087415;54;20049;-79
2022/12/29 01:45:05;;;;;;;3.50;1.40;;;;;;;10.84;60.43;99369.94;1087467;54;20110;-79
2022/12/29 01:46:16;;;;;;;4.32;1.75;;;;;;;10.81;60.83;99378.25;1087352;54;20061;-79
2022/12/29 01:47:48;;;;;;;5.15;1.90;;;;;;;10.75;61.42;99380.59;1096657;39;20628;-80
2022/12/29 01:49:22;;;;;;;4.72;1.35;;;;;;;10.76;61.13;99379.59;1087904;39;20650;-82
2022/12/29 01:50:29;;;;;;;4.53;1.73;;;;;;;10.71;61.45;99362.38;1087328;54;20051;-81
2022/12/29 01:51:36;;;;;;;5.13;1.77;;;;;;;10.79;61.25;99362.41;1087393;54;20114;-79
2022/12/29 01:52:43;;;;;;;3.45;1.50;;;;;;;10.90;61.05;99367.44;1090369;46;20039;-80
2022/12/29 01:53:48;;;;;;;3.75;1.65;;;;;;;10.69;61.98;99364.38;1087436;54;20037;-81
2022/12/29 01:54:54;;;;;;;3.42;1.45;;;;;;;10.75;61.92;99361.88;1087449;54;20034;-82
2022/12/29 01:56:03;;;;;;;5.25;1.83;;;;;;;10.87;61.57;99361.56;1087361;54;20030;-82
2022/12/29 01:57:11;;;;;;;3.90;1.60;;;;;;;10.87;61.43;99356.22;1087426;54;20034;-79
2022/12/29 01:58:18;;;;;;;7.30;2.30;;;;;;;10.74;61.71;99354.00;1087363;54;20116;-79
2022/12/29 01:59:23;;;;;;;4.95;1.60;;;;;;;10.80;62.00;99352.53;1087496;54;20042;-79
2022/12/29 02:00:29;;;;;;;3.95;1.67;;;;;;;10.89;61.62;99351.53;1087541;54;20035;-80
2022/12/29 02:01:31;;;;;;;5.00;1.90;;;;;;;10.81;61.84;99351.53;1087480;54;20064;-80
2022/12/29 02:02:38;;;;;;;3.35;1.33;;;;;;;10.86;62.13;99352.72;1087426;54;20115;-79
2022/12/29 02:03:40;;;;;;;5.80;2.17;;;;;;;10.88;62.01;99352.53;1087518;54;20329;-80
2022/12/29 02:04:46;;;;;;;4.43;1.90;;;;;;;10.96;61.86;99349.88;1087360;54;20043;-79
2022/12/29 02:05:53;;;;;;;3.55;1.55;;;;;;;11.00;61.59;99345.06;1087382;47;20038;-79
2022/12/29 02:07:03;;;;;;;3.40;1.50;;;;;;;10.97;61.44;99346.19;1087258;54;20496;-79
2022/12/29 02:08:05;;;;;;;3.45;1.42;;;;;;;10.95;61.71;99342.88;1087405;54;20038;-79
2022/12/29 02:09:10;;;;;;;3.70;1.60;;;;;;;10.92;61.44;99343.19;1087489;47;20038;-78
2022/12/29 02:10:12;;;;;;;4.20;1.75;;;;;;;10.93;61.77;99342.22;1087050;54;20045;-79
2022/12/29 02:11:18;;;;;;;3.70;1.65;;;;;;;10.80;62.26;99336.47;1087313;54;20062;-80
2022/12/29 02:12:21;;;;;;;3.50;1.40;;;;;;;10.92;61.69;99337.84;1087397;54;20015;-80
2022/12/29 02:13:26;;;;;;;4.45;1.77;;;;;;;10.98;61.24;99336.38;1087448;54;20097;-80
2022/12/29 02:14:29;;;;;;;4.82;1.55;;;;;;;11.06;61.21;99331.84;1087365;54;20050;-80
2022/12/29 02:15:43;;;;;;;3.13;1.27;;;;;;;11.10;61.03;99339.53;1087352;54;20034;-79
2022/12/29 02:17:00;;;;;;;4.90;1.70;;;;;;;11.01;61.31;99328.84;1087343;54;20057;-79
2022/12/29 02:18:19;;;;;;;9.43;1.63;;;;;;;10.89;61.85;99333.69;1088121;39;20569;-78
2022/12/29 02:19:46;;;;;;;3.90;1.40;;;;;;;11.02;61.35;99341.22;1087318;54;20037;-79
2022/12/29 02:21:20;;;;;;;3.97;1.25;;;;;;;10.92;61.65;99336.00;1086900;54;20031;-79
2022/12/29 02:22:28;;;;;;;3.05;1.08;;;;;;;10.84;61.54;99336.00;1087363;54;20038;-79
2022/12/29 02:24:08;;;;;;;4.80;1.75;;;;;;;10.89;61.45;99332.81;1087015;54;20045;-84
2022/12/29 02:25:48;;;;;;;4.20;1.50;;;;;;;10.86;61.56;99338.53;1086721;54;20162;-80
2022/12/29 02:27:12;;;;;;;4.85;1.70;;;;;;;10.95;61.09;99329.50;1086468;54;20042;-77
2022/12/29 02:29:04;;;;;;;9.50;1.90;;;;;;;10.85;61.57;99334.16;1085564;54;20039;-76
2022/12/29 02:30:16;;;;;;;4.22;1.42;;;;;;;10.86;61.37;99331.31;1084835;54;20181;-78
2022/12/29 02:31:30;;;;;;;4.20;1.67;;;;;;;11.00;61.01;99329.84;1085239;54;20064;-77
2022/12/29 02:32:40;;;;;;;4.20;1.60;;;;;;;11.08;60.66;99323.69;1085125;54;20041;-78
2022/12/29 02:33:59;;;;;;;5.32;1.27;;;;;;;11.04;61.15;99325.00;1085922;54;20045;-80
2022/12/29 02:35:10;;;;;;;4.22;1.42;;;;;;;11.02;61.16;99317.16;1085763;54;20043;-78
2022/12/29 02:36:26;;;;;;;2.90;1.10;;;;;;;11.09;61.04;99322.69;1085629;54;20038;-78
2022/12/29 02:37:35;;;;;;;4.30;1.77;;;;;;;11.06;61.04;99314.97;1085866;54;20038;-80
2022/12/29 02:38:54;;;;;;;2.97;1.20;;;;;;;11.01;60.77;99315.47;1085954;39;20602;-80
2022/12/29 02:40:06;;;;;;;5.25;2.05;;;;;;;11.10;60.52;99318.97;1086346;31;20581;-80
2022/12/29 02:41:16;;;;;;;3.42;1.60;;;;;;;11.00;61.09;99313.78;1085678;39;20695;-80
2022/12/29 02:42:32;;;;;;;4.00;1.38;;;;;;;11.11;60.44;99317.16;1085474;54;20042;-77
2022/12/29 02:43:39;;;;;;;3.97;1.55;;;;;;;11.10;60.41;99318.16;1085244;54;20668;-77
2022/12/29 02:44:54;;;;;;;4.22;1.25;;;;;;;10.98;60.98;99313.13;1085990;47;20042;-77
2022/12/29 02:46:03;;;;;;;3.97;1.55;;;;;;;10.97;60.83;99314.13;1085349;54;20082;-78
2022/12/29 02:47:15;;;;;;;5.25;1.83;;;;;;;10.92;61.16;99308.44;1085671;39;20863;-77
2022/12/29 02:48:26;;;;;;;4.88;1.77;;;;;;;10.91;61.08;99312.09;1085321;54;20042;-78
2022/12/29 02:49:33;;;;;;;4.70;1.55;;;;;;;10.96;61.04;99308.94;1085692;54;20303;-78
2022/12/29 02:50:41;;;;;;;4.95;1.40;;;;;;;11.02;60.87;99311.78;1085688;54;21044;-77
2022/12/29 02:51:51;;;;;;;5.47;1.70;;;;;;;10.94;60.86;99309.13;1086550;39;20590;-78
2022/12/29 02:53:01;;;;;;;5.43;1.30;;;;;;;10.93;60.84;99318.97;1085699;54;20046;-78
2022/12/29 02:55:20;;;;;;;6.40;2.13;;;;;;;10.88;61.38;99315.97;1085805;54;20030;-78
2022/12/29 02:56:22;;;;;;;5.68;1.63;;;;;;;10.90;61.30;99318.47;1085886;54;20633;-78
2022/12/29 02:57:35;;;;;;;3.47;1.70;;;;;;;10.89;60.93;99316.78;1085982;47;20033;-76
2022/12/29 02:58:37;;;;;;;3.70;1.38;;;;;;;10.90;61.37;99319.31;1085587;54;20584;-77
2022/12/29 02:59:41;;;;;;;4.57;1.73;;;;;;;10.79;61.24;99311.59;1085237;54;20038;-76
2022/12/29 03:01:01;;;;;;;7.20;2.00;;;;;;;10.81;61.65;99314.09;1085609;54;20034;-78
2022/12/29 03:02:26;;;;;;;4.30;1.63;;;;;;;10.83;61.51;99304.91;1085976;39;20448;-78
2022/12/29 03:03:43;;;;;;;3.97;1.63;;;;;;;10.81;61.84;99314.09;1085273;54;20042;-79
2022/12/29 03:05:05;;;;;;;3.90;1.65;;;;;;;10.80;61.87;99307.06;1084808;54;20022;-78
2022/12/29 03:06:18;;;;;;;5.90;2.45;;;;;;;10.71;61.90;99309.72;1085201;54;20042;-77
2022/12/29 03:07:31;;;;;;;6.35;2.20;;;;;;;10.70;62.13;99297.38;1085363;54;20042;-79
2022/12/29 03:08:40;;;;;;;4.70;2.28;;;;;;;10.61;62.37;99298.34;1085348;54;20054;-78
2022/12/29 03:09:52;;;;;;;5.55;2.03;;;;;;;10.65;62.19;99304.19;1085943;39;20811;-81
2022/12/29 03:11:02;;;;;;;5.35;1.83;;;;;;;10.67;62.43;99303.06;1084735;54;20048;-77
2022/12/29 03:12:17;;;;;;;3.13;1.30;;;;;;;10.63;62.40;99301.69;1085330;54;20128;-78
2022/12/29 03:16:22;;;;;;;4.05;1.60;;;;;;;10.55;62.39;99291.81;1085032;54;20110;-77
2022/12/29 03:17:36;;;;;;;4.68;1.77;;;;;;;10.50;62.63;99291.47;1085016;54;20067;-77
2022/12/29 03:18:44;;;;;;;4.00;1.40;;;;;;;10.56;62.49;99284.66;1085021;54;20776;-77
2022/12/29 03:19:52;;;;;;;4.60;1.80;;;;;;;10.49;62.72;99288.94;1085266;54;20039;-78
2022/12/29 03:20:56;;;;;;;4.32;1.65;;;;;;;10.52;62.55;99283.28;1085200;54;20050;-76
2022/12/29 03:23:24;;;;;;;4.30;1.60;;;;;;;10.65;62.29;99283.66;1085662;54;20027;-79
2022/12/29 03:24:29;;;;;;;3.92;1.65;;;;;;;10.54;62.60;99286.63;1085097;54;20038;-77
2022/12/29 03:25:37;;;;;;;4.32;1.75;;;;;;;10.50;62.73;99286.13;1085190;54;20059;-79
2022/12/29 03:26:41;;;;;;;4.03;1.60;;;;;;;10.54;62.23;99286.63;1085463;54;20042;-77
2022/12/29 03:27:50;;;;;;;6.07;1.60;;;;;;;10.54;62.48;99289.31;1085218;54;20039;-77
2022/12/29 03:28:55;;;;;;;4.45;1.52;;;;;;;10.48;62.78;99289.97;1085798;54;20073;-79
2022/12/29 03:30:03;;;;;;;6.43;2.00;;;;;;;10.43;62.77;99291.28;1085859;54;20940;-77
2022/12/29 03:31:06;;;;;;;4.30;1.70;;;;;;;10.55;62.51;99288.31;1086628;31;20541;-76
2022/12/29 03:32:14;;;;;;;5.57;1.67;;;;;;;10.44;62.61;99284.94;1085705;39;20448;-77
2022/12/29 03:33:25;;;;;;;3.97;1.50;;;;;;;10.39;62.92;99292.59;1085858;46;20041;-77
2022/12/29 03:34:28;;;;;;;3.97;1.63;;;;;;;10.43;62.77;99285.13;1085556;46;20042;-77
2022/12/29 03:35:37;;;;;;;4.10;1.58;;;;;;;10.55;62.59;99277.63;1085323;54;20038;-78
2022/12/29 03:36:44;;;;;;;2.85;1.20;;;;;;;10.73;61.77;99281.00;1085368;54;20046;-78
2022/12/29 03:37:55;;;;;;;3.22;1.30;;;;;;;10.56;62.58;99282.81;1085206;54;20065;-80
2022/12/29 03:39:02;;;;;;;3.72;1.55;;;;;;;10.62;62.33;99278.63;1085299;54;20046;-80
2022/12/29 03:40:07;;;;;;;4.85;1.65;;;;;;;10.52;63.05;99280.63;1085861;54;20042;-79
2022/12/29 03:41:12;;;;;;;5.03;1.70;;;;;;;10.57;63.12;99280.97;1085395;54;20133;-79
2022/12/29 03:42:20;;;;;;;4.80;2.00;;;;;;;10.71;62.51;99283.00;1085276;54;20042;-77
2022/12/29 03:43:22;;;;;;;3.88;1.52;;;;;;;10.79;62.52;99274.16;1085445;54;20065;-78
2022/12/29 03:44:36;;;;;;;3.65;1.42;;;;;;;10.75;62.56;99284.34;1088543;39;20867;-77
2022/12/29 03:45:38;;;;;;;6.53;1.83;;;;;;;10.59;63.19;99287.81;1085804;54;20034;-81
2022/12/29 03:46:42;;;;;;;7.82;1.95;;;;;;;10.58;63.43;99286.16;1085763;54;20117;-80
2022/12/29 03:47:44;;;;;;;3.67;1.50;;;;;;;10.53;63.46;99279.63;1086047;54;20041;-77
2022/12/29 03:48:51;;;;;;;4.28;1.77;;;;;;;10.48;63.39;99277.44;1085936;54;20075;-79
2022/12/29 03:49:54;;;;;;;6.03;1.95;;;;;;;10.67;63.08;99272.81;1086047;54;20063;-78
2022/12/29 03:50:58;;;;;;;3.60;1.42;;;;;;;10.58;63.24;99272.78;1085685;54;20658;-77
2022/12/29 03:52:00;;;;;;;4.03;1.40;;;;;;;10.61;63.04;99282.31;1085870;54;20062;-78
2022/12/29 03:53:04;;;;;;;3.90;1.70;;;;;;;10.54;63.37;99279.44;1086173;54;20053;-78
2022/12/29 03:54:06;;;;;;;5.38;1.90;;;;;;;10.50;63.82;99271.91;1086339;54;20704;-79
2022/12/29 03:55:11;;;;;;;4.45;1.50;;;;;;;10.50;63.86;99272.78;1086233;54;20038;-78
2022/12/29 03:56:12;;;;;;;4.82;1.60;;;;;;;10.58;63.48;99269.28;1084486;54;20042;-77
2022/12/29 03:57:17;;;;;;;5.70;1.73;;;;;;;10.58;63.55;99278.13;1085286;54;20116;-77
2022/12/29 03:58:18;;;;;;;6.80;1.70;;;;;;;10.49;63.48;99275.59;1089495;39;20547;-77
2022/12/29 03:59:23;;;;;;;5.60;1.85;;;;;;;10.44;63.67;99281.41;1085070;54;20042;-78
2022/12/29 04:00:24;;;;;;;5.25;1.73;;;;;;;10.44;63.93;99276.06;1085013;54;20045;-80
2022/12/29 04:01:29;;;;;;;3.53;1.42;;;;;;;10.52;63.26;99272.59;1085206;54;20038;-80
2022/12/29 04:02:30;;;;;;;3.78;1.23;;;;;;;10.61;63.37;99274.28;1085376;54;20062;-80
2022/12/29 04:03:35;;;;;;;3.63;1.42;;;;;;;10.50;63.36;99274.59;1085428;54;20034;-80
2022/12/29 04:04:39;;;;;;;5.35;2.10;;;;;;;10.50;63.42;99274.59;1085424;54;20086;-80
2022/12/29 04:05:43;;;;;;;4.15;1.52;;;;;;;10.60;63.31;99270.78;1086432;39;20555;-79
2022/12/29 04:06:45;;;;;;;4.25;1.50;;;;;;;10.62;62.92;99273.28;1085231;54;20039;-82
2022/12/29 04:07:50;;;;;;;4.22;1.45;;;;;;;10.58;63.13;99282.66;1085173;54;20054;-79
2022/12/29 04:08:51;;;;;;;4.00;1.50;;;;;;;10.66;63.00;99280.00;1085356;54;20066;-78
2022/12/29 04:09:55;;;;;;;4.47;1.40;;;;;;;10.70;63.05;99275.16;1085437;54;20034;-77
2022/12/29 04:10:57;;;;;;;5.00;1.98;;;;;;;10.78;62.75;99288.53;1085354;54;20054;-78
2022/12/29 04:12:01;;;;;;;3.90;1.60;;;;;;;10.73;62.82;99280.16;1084635;54;20061;-78
2022/12/29 04:13:03;;;;;;;4.55;1.73;;;;;;;10.77;62.79;99274.31;1085334;54;20090;-77
2022/12/29 04:14:07;;;;;;;3.72;1.40;;;;;;;10.90;62.42;99275.66;1085389;54;20039;-78
2022/12/29 04:15:10;;;;;;;4.22;1.40;;;;;;;10.91;62.12;99274.66;1085763;54;20038;-77
2022/12/29 04:16:14;;;;;;;4.32;1.58;;;;;;;10.92;62.15;99271.81;1085805;54;20038;-78
2022/12/29 04:17:15;;;;;;;3.95;1.17;;;;;;;10.95;62.26;99265.34;1085876;54;20038;-78
2022/12/29 04:18:19;;;;;;;4.57;1.40;;;;;;;10.91;62.13;99259.44;1085496;54;20069;-78
2022/12/29 04:19:21;;;;;;;3.45;1.30;;;;;;;11.03;61.82;99259.97;1085130;54;20073;-78
2022/12/29 04:21:44;;;;;;;3.40;1.20;;;;;;;11.01;61.82;99261.97;1085655;54;20038;-79
2022/12/29 04:22:45;;;;;;;4.38;1.42;;;;;;;11.05;61.42;99263.31;1085760;54;20054;-79
2022/12/29 04:23:49;;;;;;;3.38;1.20;;;;;;;11.08;61.17;99262.97;1085781;54;20038;-77
2022/12/29 04:24:51;;;;;;;4.13;1.52;;;;;;;11.07;61.12;99250.59;1085474;54;20069;-77
2022/12/29 04:25:55;;;;;;;3.00;1.50;;;;;;;11.13;61.25;99248.28;1085540;54;20050;-77
2022/12/29 04:26:57;;;;;;;2.70;1.10;;;;;;;11.18;60.91;99244.09;1085612;54;20073;-77
2022/12/29 04:28:01;;;;;;;4.18;1.40;;;;;;;11.13;60.92;99243.75;1085464;54;20027;-78
2022/12/29 04:29:02;;;;;;;3.88;1.30;;;;;;;11.23;60.80;99243.59;1085177;54;20049;-78
2022/12/29 04:30:08;;;;;;;3.20;1.20;;;;;;;11.26;60.66;99232.53;1085783;46;20098;-76
2022/12/29 04:31:09;;;;;;;3.38;0.90;;;;;;;11.28;60.18;99227.84;1085323;54;20046;-78
2022/12/29 04:32:13;;;;;;;4.18;1.45;;;;;;;11.33;59.89;99222.00;1085898;54;20063;-77
2022/12/29 04:33:15;;;;;;;3.92;1.30;;;;;;;11.38;60.01;99233.03;1085728;54;20061;-78
2022/12/29 04:34:19;;;;;;;3.40;1.13;;;;;;;11.35;59.75;99231.50;1085313;54;20034;-78
2022/12/29 04:35:20;;;;;;;3.55;1.10;;;;;;;11.41;59.66;99221.97;1085704;54;20054;-78
2022/12/29 04:36:27;;;;;;;4.38;1.30;;;;;;;11.42;59.79;99226.31;1085496;54;20069;-78
2022/12/29 04:37:29;;;;;;;3.15;1.25;;;;;;;11.42;59.81;99215.63;1086076;46;20069;-77
2022/12/29 04:38:33;;;;;;;3.67;1.40;;;;;;;11.38;59.65;99209.78;1084722;54;20045;-78
2022/12/29 04:39:34;;;;;;;2.97;0.90;;;;;;;11.47;59.46;99213.28;1085761;39;20456;-77
2022/12/29 04:40:40;;;;;;;3.22;1.00;;;;;;;11.44;59.18;99218.13;1084980;54;20035;-78
2022/12/29 04:41:44;;;;;;;3.08;1.00;;;;;;;11.46;59.31;99216.09;1084888;54;20073;-79
2022/12/29 04:42:46;;;;;;;3.90;1.20;;;;;;;11.35;59.27;99228.84;1084787;46;20076;-77
2022/12/29 04:43:50;;;;;;;4.88;1.42;;;;;;;11.31;59.55;99229.34;1084598;54;20038;-77
2022/12/29 04:44:51;;;;;;;3.33;1.10;;;;;;;11.27;59.74;99236.88;1084745;54;20849;-76
2022/12/29 04:45:56;;;;;;;4.55;1.58;;;;;;;11.30;59.89;99233.88;1085350;54;20027;-77
2022/12/29 04:46:57;;;;;;;6.47;1.48;;;;;;;11.36;59.65;99225.16;1085568;54;20042;-78
2022/12/29 04:48:01;;;;;;;5.97;1.75;;;;;;;11.31;59.92;99230.19;1085219;54;20026;-78
2022/12/29 04:49:08;;;;;;;3.33;1.30;;;;;;;11.15;59.92;99230.19;1085394;46;20599;-78
2022/12/29 04:50:12;;;;;;;3.47;1.48;;;;;;;11.18;60.23;99233.41;1085136;54;20053;-77
2022/12/29 04:51:14;;;;;;;3.33;1.02;;;;;;;11.26;59.57;99229.03;1085233;54;20046;-78
2022/12/29 04:52:21;;;;;;;4.25;1.23;;;;;;;11.21;59.66;99230.38;1085149;54;20084;-79
2022/12/29 04:53:22;;;;;;;5.15;1.30;;;;;;;11.23;59.73;99233.72;1085975;54;20098;-80
2022/12/29 04:54:26;;;;;;;3.90;1.58;;;;;;;11.18;59.72;99224.53;1085981;31;20503;-76
2022/12/29 04:55:28;;;;;;;5.97;1.60;;;;;;;11.11;59.73;99223.53;1085609;54;20046;-79
2022/12/29 04:56:32;;;;;;;4.13;1.15;;;;;;;11.14;60.04;99224.03;1085402;54;20027;-79
2022/12/29 04:57:33;;;;;;;3.60;1.30;;;;;;;11.13;59.79;99221.53;1085519;54;20061;-78
2022/12/29 04:58:37;;;;;;;4.45;1.35;;;;;;;11.16;59.59;99215.81;1085026;54;20066;-77
2022/12/29 04:59:39;;;;;;;4.22;1.52;;;;;;;11.12;59.91;99217.19;1085042;54;20031;-78
2022/12/29 05:00:43;;;;;;;7.50;1.50;;;;;;;11.07;59.73;99231.06;1085831;54;20042;-79
2022/12/29 05:01:44;;;;;;;3.72;1.20;;;;;;;11.10;59.54;99222.69;1085144;54;20118;-77
2022/12/29 05:02:49;;;;;;;4.35;1.30;;;;;;;11.17;59.54;99217.50;1085054;46;20034;-78
2022/12/29 05:03:51;;;;;;;4.40;1.52;;;;;;;11.14;59.63;99223.19;1085407;54;20149;-77
2022/12/29 05:04:55;;;;;;;3.60;1.42;;;;;;;11.21;59.45;99229.53;1085173;54;20065;-77
2022/12/29 05:05:57;;;;;;;4.15;1.40;;;;;;;11.10;59.72;99222.69;1085662;54;20072;-77
2022/12/29 05:07:01;;;;;;;3.85;1.40;;;;;;;11.06;60.02;99232.88;1085170;54;20038;-78
2022/12/29 05:08:05;;;;;;;3.70;1.48;;;;;;;11.02;60.19;99236.06;1085749;54;20069;-78
2022/12/29 05:09:10;;;;;;;2.38;0.98;;;;;;;11.01;60.02;99231.72;1085557;54;20042;-77
2022/12/29 05:10:12;;;;;;;5.15;1.88;;;;;;;11.00;59.94;99227.38;1085135;54;20050;-78
2022/12/29 05:11:16;;;;;;;4.38;1.30;;;;;;;10.94;60.40;99220.88;1085220;46;20050;-78
2022/12/29 05:12:17;;;;;;;4.90;1.35;;;;;;;10.96;60.40;99221.50;1085024;54;20593;-79
2022/12/29 05:13:21;;;;;;;3.47;1.33;;;;;;;10.87;60.50;99230.53;1085308;54;20038;-77
2022/12/29 05:14:23;;;;;;;6.78;1.98;;;;;;;10.83;60.64;99239.91;1085148;54;20054;-78
2022/12/29 05:15:35;;;;;;;3.90;1.30;;;;;;;10.87;60.75;99238.56;1085472;54;20179;-77
2022/12/29 05:16:45;;;;;;;4.53;1.20;;;;;;;10.95;60.50;99230.56;1084296;54;20042;-78
2022/12/29 05:18:00;;;;;;;4.95;1.73;;;;;;;10.86;60.66;99235.06;1084394;54;20034;-77
2022/12/29 05:19:09;;;;;;;4.75;1.23;;;;;;;10.79;60.79;99241.22;1084433;54;20042;-77
2022/12/29 05:20:14;;;;;;;3.40;1.17;;;;;;;10.85;60.68;99237.91;1084394;54;20093;-77
2022/12/29 05:21:17;;;;;;;4.25;1.38;;;;;;;10.78;60.91;99235.06;1084105;54;20042;-77
2022/12/29 05:22:22;;;;;;;5.90;1.63;;;;;;;10.74;61.27;99239.06;1084411;54;20034;-77
2022/12/29 05:23:28;;;;;;;4.40;1.33;;;;;;;10.79;61.19;99235.88;1084702;54;20050;-77
2022/12/29 05:24:30;;;;;;;4.00;1.30;;;;;;;10.84;60.74;99233.56;1084808;54;20660;-77
2022/12/29 05:25:34;;;;;;;4.07;1.40;;;;;;;10.80;61.14;99226.88;1084785;54;20042;-77
2022/12/29 05:26:35;;;;;;;4.53;1.40;;;;;;;10.92;60.62;99236.25;1085089;54;20866;-78
2022/12/29 05:27:40;;;;;;;3.85;1.20;;;;;;;10.92;60.67;99238.91;1085529;54;20142;-78
2022/12/29 05:28:41;;;;;;;3.72;1.30;;;;;;;11.05;60.65;99228.53;1086114;54;20049;-77
2022/12/29 05:29:45;;;;;;;6.15;1.60;;;;;;;10.99;60.50;99236.41;1085936;54;20038;-77
2022/12/29 05:30:48;;;;;;;2.90;1.25;;;;;;;10.89;60.90;99234.75;1085614;54;20073;-78
2022/12/29 05:31:52;;;;;;;5.07;1.42;;;;;;;10.91;60.73;99234.56;1085249;54;20061;-77
2022/12/29 05:32:54;;;;;;;3.58;1.10;;;;;;;10.95;60.54;99240.41;1085140;54;20050;-77
2022/12/29 05:33:58;;;;;;;3.33;1.33;;;;;;;10.97;60.76;99238.41;1085258;54;20039;-77
2022/12/29 05:34:59;;;;;;;3.70;1.10;;;;;;;10.96;60.53;99240.22;1086892;31;20509;-77
2022/12/29 05:36:07;;;;;;;3.88;1.33;;;;;;;10.85;60.99;99237.91;1085644;46;20034;-77
2022/12/29 05:37:08;;;;;;;3.53;1.30;;;;;;;10.93;60.80;99243.25;1084946;54;20054;-77
2022/12/29 05:38:12;;;;;;;4.80;1.30;;;;;;;10.93;60.85;99241.41;1085288;54;20045;-77
2022/12/29 05:39:17;;;;;;;6.05;1.48;;;;;;;11.01;60.61;99234.38;1084940;54;20683;-77
2022/12/29 05:40:21;;;;;;;5.57;1.40;;;;;;;11.08;60.67;99236.22;1085127;54;20062;-79
2022/12/29 05:41:22;;;;;;;2.72;1.00;;;;;;;11.05;60.73;99249.94;1085233;54;20118;-77
2022/12/29 05:42:26;;;;;;;3.95;1.30;;;;;;;11.10;60.42;99244.06;1085020;54;20573;-78
2022/12/29 05:43:28;;;;;;;3.88;1.42;;;;;;;11.11;60.38;99235.06;1084995;54;20627;-78
2022/12/29 05:44:32;;;;;;;4.07;1.35;;;;;;;11.10;60.48;99238.72;1084985;54;20034;-78
2022/12/29 05:45:33;;;;;;;4.57;1.20;;;;;;;11.19;60.18;99237.72;1085390;46;20042;-77
2022/12/29 05:46:37;;;;;;;3.78;1.40;;;;;;;11.02;60.66;99231.56;1084914;54;20042;-78
2022/12/29 05:47:39;;;;;;;3.83;1.30;;;;;;;11.13;60.54;99241.06;1085004;54;20050;-77
2022/12/29 05:48:43;;;;;;;4.35;1.30;;;;;;;11.20;60.45;99233.22;1085379;54;20042;-78
2022/12/29 05:49:44;;;;;;;4.00;1.60;;;;;;;11.22;60.28;99228.53;1085241;54;20612;-77